Atlantic Challenge — EI5772 — position and weather

sailwx.info

Track history (hours):
 
Tides and Currents Weather Stations Pressure Air Temp Water Temp Dewpoint Dewpoint Depression Visibility Wind Speed Wind Dir Waves Ship Positions

Atlantic Challenge

Last reported at 2016-Aug-12 00:29 UTC. Time now 2016-Aug-24 16:12 UTC.
Position N 51°15' W 011°34'.
Warning: this ship's position is 12 days out of date.

; draft 7 m.

MMSI: 250183000.

Date/timePositionNaut miles runAvg speedWind from/ knotsBaromVisibWave heightAir tempDewpointWater temp
2016-Aug-12 00:29N 51°15' W 011°34'1010.6
2016-Aug-11 23:33N 51°15' W 011°18'6 5.8
2016-Aug-11 22:33N 51°15' W 011°09'1010.2
2016-Aug-11 21:33N 51°15' W 010°53'7 6.8
2016-Aug-11 20:33N 51°15' W 010°42'1010.1
2016-Aug-11 19:33N 51°14' W 010°26'7 6.9
2016-Aug-11 18:33N 51°15' W 010°15'1110.6
2016-Aug-11 17:31N 51°25' W 010°23'1211.2
2016-Aug-11 16:27N 51°35' W 010°33'  
Track history (hours):
 
Tides and Currents Weather Stations Pressure Air Temp Water Temp Dewpoint Dewpoint Depression Visibility Wind Speed Wind Dir Waves Ship Positions

Atlantic Challenge

Last reported at 2016-Aug-12 00:29 UTC. Time now 2016-Aug-24 16:12 UTC.
Position N 51°15' W 011°34'.
Warning: this ship's position is 12 days out of date.

; draft 7 m.

MMSI: 250183000.

Date/timePositionNaut miles runAvg speedWind from/ knotsBaromVisibWave heightAir tempDewpointWater temp
2016-Aug-12 00:29N 51°15' W 011°34'1010.6
2016-Aug-11 23:33N 51°15' W 011°18'6 5.8
2016-Aug-11 22:33N 51°15' W 011°09'1010.2
2016-Aug-11 21:33N 51°15' W 010°53'7 6.8
2016-Aug-11 20:33N 51°15' W 010°42'1010.1
2016-Aug-11 19:33N 51°14' W 010°26'7 6.9
2016-Aug-11 18:33N 51°15' W 010°15'1110.6
2016-Aug-11 17:31N 51°25' W 010°23'1211.2
2016-Aug-11 16:27N 51°35' W 010°33'  

Dump ship's entire track history